Time;durP1;ratioP1;P1;durP2;ratioP2;P2;SDS_P1;SDS_P2;PMS_P1;PMS_P2;Temp;Humidity;BMP_temperature;BMP_pressure;BME280_temperature;BME280_humidity;BME280_pressure;Samples;Min_cycle;Max_cycle;Signal;HPM_P1;HPM_P2
2021/10/14 00:00:38;;;;;;;8.73;4.60;;;14.30;99.90;;;;;;5054690;28;20263;-78
2021/10/14 00:03:06;;;;;;;6.13;4.40;;;14.30;99.90;;;;;;5073658;28;20181;-77
2021/10/14 00:05:33;;;;;;;8.03;5.00;;;14.30;99.90;;;;;;5072392;28;20604;-77
2021/10/14 00:07:59;;;;;;;7.82;5.38;;;14.30;99.90;;;;;;5073308;28;20579;-77
2021/10/14 00:10:25;;;;;;;6.63;4.97;;;14.30;99.90;;;;;;5072693;28;20184;-77
2021/10/14 00:12:51;;;;;;;6.80;4.80;;;14.30;99.90;;;;;;5072775;28;20591;-77
2021/10/14 00:15:16;;;;;;;6.77;5.10;;;14.30;99.90;;;;;;5072998;28;20591;-78
2021/10/14 00:17:42;;;;;;;8.43;4.83;;;14.30;99.90;;;;;;5071327;28;20173;-77
2021/10/14 00:20:09;;;;;;;6.90;4.80;;;14.30;99.90;;;;;;5069104;28;20181;-77
2021/10/14 00:22:35;;;;;;;9.37;5.10;;;14.30;99.90;;;;;;5048497;28;20264;-77
2021/10/14 00:25:00;;;;;;;6.70;5.03;;;14.20;99.90;;;;;;5069472;28;21252;-77
2021/10/14 00:27:27;;;;;;;9.00;5.53;;;14.20;99.90;;;;;;5063011;28;20191;-78
2021/10/14 00:29:53;;;;;;;5.33;4.60;;;14.20;99.90;;;;;;5068724;28;20253;-77
2021/10/14 00:32:18;;;;;;;6.03;5.37;;;14.20;99.90;;;;;;5069713;28;20619;-78
2021/10/14 00:34:44;;;;;;;5.83;4.10;;;14.20;99.90;;;;;;5068502;28;20173;-78
2021/10/14 00:37:10;;;;;;;7.73;4.60;;;14.20;99.90;;;;;;5050821;28;20599;-77
2021/10/14 00:39:35;;;;;;;7.47;4.60;;;14.20;99.90;;;;;;5051530;28;20177;-77
2021/10/14 00:42:01;;;;;;;6.20;4.80;;;14.20;99.90;;;;;;5051124;28;20173;-78
2021/10/14 00:44:27;;;;;;;8.00;5.07;;;14.20;99.90;;;;;;5017639;28;20263;-78
2021/10/14 00:46:55;;;;;;;7.00;5.07;;;14.20;99.90;;;;;;5043131;28;20607;-77
2021/10/14 00:49:22;;;;;;;9.03;4.17;;;14.20;99.90;;;;;;5051844;28;20188;-77
2021/10/14 00:51:48;;;;;;;5.53;5.03;;;14.20;99.90;;;;;;5052681;28;20700;-77
2021/10/14 00:54:18;;;;;;;4.10;3.70;;;14.20;99.90;;;;;;5051899;28;20234;-78
2021/10/14 00:56:45;;;;;;;6.27;3.90;;;14.20;99.90;;;;;;5051889;28;20674;-78
2021/10/14 00:59:12;;;;;;;5.40;4.25;;;14.20;99.90;;;;;;5052672;28;20616;-77
2021/10/14 01:01:37;;;;;;;8.75;5.00;;;14.20;99.90;;;;;;5034785;28;20180;-78
2021/10/14 01:04:05;;;;;;;4.97;4.57;;;14.20;99.90;;;;;;5051762;28;20530;-78
2021/10/14 01:06:31;;;;;;;7.70;5.15;;;14.20;99.90;;;;;;5051723;28;20196;-78
2021/10/14 01:08:57;;;;;;;6.95;4.38;;;14.20;99.90;;;;;;5051547;28;20176;-78
2021/10/14 01:11:24;;;;;;;6.50;4.50;;;14.20;99.90;;;;;;5051123;28;20191;-78
2021/10/14 01:13:50;;;;;;;6.20;5.00;;;14.20;99.90;;;;;;5051456;28;20976;-78
2021/10/14 01:16:15;;;;;;;6.00;4.23;;;14.20;99.90;;;;;;5051605;28;20185;-77
2021/10/14 01:18:41;;;;;;;6.07;4.17;;;14.20;99.90;;;;;;5051611;28;20177;-78
2021/10/14 01:21:07;;;;;;;6.03;4.57;;;14.20;99.90;;;;;;5051015;28;20171;-77
2021/10/14 01:23:34;;;;;;;7.17;4.37;;;14.20;99.90;;;;;;5051468;28;20284;-77
2021/10/14 01:26:00;;;;;;;7.10;4.30;;;14.20;99.90;;;;;;5033133;28;20802;-77
2021/10/14 01:28:26;;;;;;;7.25;4.90;;;14.20;99.90;;;;;;5051191;28;20234;-77
2021/10/14 01:30:52;;;;;;;5.77;4.40;;;14.20;99.90;;;;;;5051158;28;20176;-77
2021/10/14 01:33:18;;;;;;;6.60;3.50;;;14.20;99.90;;;;;;5051005;28;20215;-77
2021/10/14 01:35:44;;;;;;;8.75;4.10;;;14.20;99.90;;;;;;5051086;28;20539;-77
2021/10/14 01:38:10;;;;;;;5.10;3.70;;;14.20;99.90;;;;;;5056186;28;20165;-77
2021/10/14 01:40:35;;;;;;;4.47;4.07;;;14.20;99.90;;;;;;5051032;28;20230;-77
2021/10/14 01:43:01;;;;;;;11.83;4.90;;;14.20;99.90;;;;;;5051003;28;20954;-77
2021/10/14 01:45:27;;;;;;;4.43;4.03;;;14.20;99.90;;;;;;5051261;28;20749;-78
2021/10/14 01:47:52;;;;;;;6.67;3.60;;;14.20;99.90;;;;;;5051023;28;20174;-77
2021/10/14 01:50:18;;;;;;;8.30;4.50;;;14.20;99.90;;;;;;5051412;28;20176;-77
2021/10/14 01:52:44;;;;;;;6.40;4.20;;;14.20;99.90;;;;;;5032589;28;20196;-78
2021/10/14 01:55:10;;;;;;;6.70;4.17;;;14.20;99.90;;;;;;5033483;28;20188;-77
2021/10/14 01:57:35;;;;;;;4.63;3.50;;;14.20;99.90;;;;;;5054931;28;20161;-77
2021/10/14 02:00:02;;;;;;;4.87;4.10;;;14.20;99.90;;;;;;5055486;28;20652;-77
2021/10/14 02:02:37;;;;;;;6.00;3.17;;;14.20;99.90;;;;;;5054873;28;20164;-77
2021/10/14 02:05:03;;;;;;;5.03;4.10;;;14.20;99.90;;;;;;5055352;28;21185;-78
2021/10/14 02:07:29;;;;;;;4.27;3.43;;;14.20;99.90;;;;;;5055103;28;20609;-78
2021/10/14 02:09:54;;;;;;;5.20;3.70;;;14.20;99.90;;;;;;5055362;28;21102;-78
2021/10/14 02:12:20;;;;;;;6.47;4.70;;;14.20;99.90;;;;;;5054471;28;20230;-77
2021/10/14 02:14:46;;;;;;;5.70;4.00;;;14.20;99.90;;;;;;5038113;28;20192;-77
2021/10/14 02:17:11;;;;;;;6.33;4.47;;;14.20;99.90;;;;;;5055112;28;20165;-77
2021/10/14 02:19:37;;;;;;;5.53;4.50;;;14.30;99.90;;;;;;5054927;28;20568;-77
2021/10/14 02:22:03;;;;;;;5.00;4.47;;;14.20;99.90;;;;;;5054578;28;20258;-77
2021/10/14 02:24:29;;;;;;;9.47;6.40;;;14.20;99.90;;;;;;5036686;28;20205;-77
2021/10/14 02:26:54;;;;;;;6.53;4.37;;;14.20;99.90;;;;;;5054871;28;20191;-78
2021/10/14 02:29:20;;;;;;;6.00;4.13;;;14.30;99.90;;;;;;5054700;28;20173;-77
2021/10/14 02:31:46;;;;;;;6.13;4.40;;;14.30;99.90;;;;;;5054423;28;20554;-77
2021/10/14 02:34:11;;;;;;;10.00;4.87;;;14.30;99.90;;;;;;5054811;28;20165;-77
2021/10/14 02:36:37;;;;;;;6.30;4.83;;;14.30;99.90;;;;;;5055188;28;20196;-77
2021/10/14 02:39:04;;;;;;;7.00;4.03;;;14.30;99.90;;;;;;5037091;28;20205;-77
2021/10/14 02:41:29;;;;;;;5.50;4.33;;;14.30;99.90;;;;;;5054670;28;20180;-78
2021/10/14 02:43:55;;;;;;;6.27;4.47;;;14.30;99.90;;;;;;5054621;28;20932;-77
2021/10/14 02:46:21;;;;;;;5.60;4.60;;;14.30;99.90;;;;;;5054359;28;20551;-77
2021/10/14 02:48:46;;;;;;;5.90;3.87;;;14.30;99.90;;;;;;5054565;28;20177;-77
2021/10/14 02:51:12;;;;;;;4.97;3.80;;;14.30;99.90;;;;;;5056121;28;20169;-77
2021/10/14 02:53:38;;;;;;;9.20;4.33;;;14.30;99.90;;;;;;5054229;28;20197;-77
2021/10/14 02:56:04;;;;;;;4.50;3.90;;;14.30;99.90;;;;;;5053942;28;20579;-77
2021/10/14 02:58:29;;;;;;;5.70;4.50;;;14.30;99.90;;;;;;5054157;28;20176;-77
2021/10/14 03:00:55;;;;;;;7.90;4.37;;;14.30;99.90;;;;;;5053707;28;20944;-77
2021/10/14 03:03:21;;;;;;;5.70;3.83;;;14.40;99.90;;;;;;5054954;28;20169;-77
2021/10/14 03:05:46;;;;;;;5.90;4.30;;;14.40;99.90;;;;;;5036239;28;20200;-77
2021/10/14 03:08:12;;;;;;;7.73;5.17;;;14.40;99.90;;;;;;5053086;28;20174;-77
2021/10/14 03:10:38;;;;;;;7.07;4.40;;;14.30;99.90;;;;;;5054273;28;20224;-78
2021/10/14 03:13:04;;;;;;;3.80;3.23;;;14.30;99.90;;;;;;5053650;28;20197;-78
2021/10/14 03:15:29;;;;;;;5.10;4.13;;;14.30;99.90;;;;;;5054158;28;20185;-77
2021/10/14 03:17:55;;;;;;;7.17;4.47;;;14.30;99.90;;;;;;5053965;28;20574;-77
2021/10/14 03:20:21;;;;;;;5.10;4.60;;;14.30;99.90;;;;;;5054007;28;20252;-77
2021/10/14 03:22:47;;;;;;;5.77;3.90;;;14.30;99.90;;;;;;5053446;28;20582;-77
2021/10/14 03:25:12;;;;;;;5.00;4.17;;;14.30;99.90;;;;;;5054159;28;20563;-77
2021/10/14 03:27:38;;;;;;;9.17;4.87;;;14.30;99.90;;;;;;5054546;28;20180;-77
2021/10/14 03:30:05;;;;;;;7.87;5.60;;;14.30;99.90;;;;;;5054366;28;20173;-77
2021/10/14 03:32:30;;;;;;;8.02;5.13;;;14.30;99.90;;;;;;5053150;28;20204;-78
2021/10/14 03:34:56;;;;;;;5.60;4.60;;;14.20;99.90;;;;;;5053792;28;20521;-78
2021/10/14 03:37:22;;;;;;;7.00;4.70;;;14.10;99.90;;;;;;5035808;28;20180;-77
2021/10/14 03:39:48;;;;;;;8.03;4.37;;;14.10;99.90;;;;;;5053554;28;20196;-77
2021/10/14 03:42:14;;;;;;;10.33;4.90;;;14.00;99.90;;;;;;5053314;28;20603;-77
2021/10/14 03:44:40;;;;;;;10.87;5.27;;;14.00;99.90;;;;;;5053605;28;20263;-77
2021/10/14 03:47:05;;;;;;;8.33;4.60;;;14.00;99.90;;;;;;5053538;28;21157;-77
2021/10/14 03:49:31;;;;;;;6.13;3.87;;;13.90;99.90;;;;;;5053239;28;20658;-77
2021/10/14 03:51:57;;;;;;;6.80;4.87;;;13.90;99.90;;;;;;5053414;28;20196;-77
2021/10/14 03:54:22;;;;;;;6.67;3.60;;;13.90;99.90;;;;;;5055628;28;20181;-77
2021/10/14 03:56:48;;;;;;;6.60;3.90;;;13.90;99.90;;;;;;5054388;28;20189;-77
2021/10/14 03:59:13;;;;;;;8.03;4.60;;;13.90;99.90;;;;;;5053322;28;20260;-77
2021/10/14 04:01:39;;;;;;;7.23;4.10;;;13.90;99.90;;;;;;5053143;28;20168;-77
2021/10/14 04:04:05;;;;;;;5.10;4.60;;;13.90;99.90;;;;;;5053320;28;20176;-77
2021/10/14 04:06:30;;;;;;;5.63;3.73;;;13.90;99.90;;;;;;5055919;28;20181;-77
2021/10/14 04:08:56;;;;;;;5.80;4.30;;;13.90;99.90;;;;;;5053064;28;20200;-77
2021/10/14 04:11:22;;;;;;;8.87;4.93;;;13.90;99.90;;;;;;5052385;28;20575;-78
2021/10/14 04:13:47;;;;;;;7.87;4.10;;;13.90;99.90;;;;;;5052933;28;20534;-77
2021/10/14 04:16:13;;;;;;;9.70;3.20;;;13.90;99.90;;;;;;5034967;28;20216;-77
2021/10/14 04:18:39;;;;;;;6.60;3.73;;;13.90;99.90;;;;;;5052666;28;20743;-77
2021/10/14 04:21:05;;;;;;;5.27;3.30;;;13.90;99.90;;;;;;5052085;28;20180;-78
2021/10/14 04:23:31;;;;;;;4.15;3.10;;;13.90;99.90;;;;;;5035117;28;20569;-77
2021/10/14 04:25:57;;;;;;;5.30;4.17;;;13.90;99.90;;;;;;5051846;28;20213;-77
2021/10/14 04:28:23;;;;;;;7.18;3.95;;;13.90;99.90;;;;;;5051521;28;20575;-77
2021/10/14 04:30:48;;;;;;;10.30;3.57;;;13.90;99.90;;;;;;5051601;28;20187;-77
2021/10/14 04:33:14;;;;;;;7.23;3.90;;;13.90;99.90;;;;;;5050326;28;20239;-77
2021/10/14 04:35:40;;;;;;;7.80;3.50;;;13.90;99.90;;;;;;5044976;28;20603;-77
2021/10/14 04:38:06;;;;;;;6.33;4.20;;;13.90;99.90;;;;;;5051676;28;20999;-77
2021/10/14 04:40:32;;;;;;;8.00;4.20;;;13.90;99.90;;;;;;5052314;28;20567;-77
2021/10/14 04:42:58;;;;;;;5.70;3.93;;;13.90;99.90;;;;;;5049058;28;20184;-78
2021/10/14 04:45:24;;;;;;;5.43;3.70;;;13.80;99.90;;;;;;5034419;28;20284;-78
2021/10/14 04:47:49;;;;;;;6.07;3.83;;;13.80;99.90;;;;;;5052243;28;20655;-78
2021/10/14 04:50:15;;;;;;;8.40;4.07;;;13.80;99.90;;;;;;5052347;28;20271;-77
2021/10/14 04:52:41;;;;;;;5.00;3.90;;;13.80;99.90;;;;;;5051474;28;20196;-78
2021/10/14 04:55:07;;;;;;;5.97;4.17;;;13.80;99.90;;;;;;5052284;28;20193;-77
2021/10/14 04:57:33;;;;;;;5.50;4.00;;;13.80;99.90;;;;;;5051698;28;20184;-77
2021/10/14 04:59:59;;;;;;;5.85;4.20;;;13.80;99.90;;;;;;5052125;28;20884;-77
2021/10/14 05:02:24;;;;;;;5.97;3.67;;;13.80;99.90;;;;;;5051475;28;20260;-77
2021/10/14 05:04:50;;;;;;;5.13;2.87;;;13.80;99.90;;;;;;5052003;28;20529;-76
2021/10/14 05:07:16;;;;;;;6.30;4.23;;;13.80;99.90;;;;;;5053258;28;20180;-77
2021/10/14 05:09:42;;;;;;;4.53;3.33;;;13.90;99.90;;;;;;5067198;28;20191;-77
2021/10/14 05:12:07;;;;;;;4.87;3.50;;;13.90;99.90;;;;;;5067267;28;20534;-77
2021/10/14 05:14:33;;;;;;;4.50;4.03;;;13.90;99.90;;;;;;5051836;28;20165;-77
2021/10/14 05:16:59;;;;;;;5.90;3.90;;;13.90;99.90;;;;;;5067331;28;20193;-77
2021/10/14 05:19:24;;;;;;;6.20;4.13;;;13.90;99.90;;;;;;5052953;28;20188;-77
2021/10/14 05:21:50;;;;;;;7.67;4.00;;;14.00;99.90;;;;;;5051659;28;20192;-77
2021/10/14 05:24:16;;;;;;;7.27;4.13;;;14.00;99.90;;;;;;5051653;28;20195;-77
2021/10/14 05:26:42;;;;;;;7.35;4.05;;;14.00;99.90;;;;;;5051561;28;20626;-76
2021/10/14 05:29:08;;;;;;;9.50;4.10;;;14.00;99.90;;;;;;5051505;28;20173;-76
2021/10/14 05:31:34;;;;;;;12.05;4.75;;;14.00;99.90;;;;;;5050694;28;20177;-76
2021/10/14 05:34:00;;;;;;;7.47;4.40;;;14.00;99.90;;;;;;5057730;28;20233;-75
2021/10/14 05:36:26;;;;;;;5.30;4.07;;;14.00;99.90;;;;;;5060485;28;20185;-76
2021/10/14 05:38:52;;;;;;;9.60;4.60;;;14.10;99.90;;;;;;5057505;28;20583;-76
2021/10/14 05:41:18;;;;;;;8.20;4.93;;;14.10;99.90;;;;;;5051408;28;20157;-75
2021/10/14 05:43:44;;;;;;;6.57;4.70;;;14.10;99.90;;;;;;5050621;28;20169;-77
2021/10/14 05:46:10;;;;;;;7.10;4.05;;;14.10;99.90;;;;;;5051370;28;20199;-76
2021/10/14 05:48:36;;;;;;;5.33;3.93;;;14.10;99.90;;;;;;5052066;28;20176;-77
2021/10/14 05:51:05;;;;;;;6.23;4.23;;;14.10;99.90;;;;;;5033249;28;20181;-78
2021/10/14 05:53:31;;;;;;;7.70;4.57;;;14.10;99.90;;;;;;5051434;28;20603;-78
2021/10/14 05:55:57;;;;;;;8.17;4.67;;;14.10;99.90;;;;;;5052675;28;20998;-78
2021/10/14 05:58:23;;;;;;;9.45;5.07;;;14.10;99.90;;;;;;5051639;28;20639;-77
2021/10/14 06:00:48;;;;;;;9.57;4.90;;;14.10;99.90;;;;;;5050400;28;20173;-78
2021/10/14 06:03:14;;;;;;;6.70;5.30;;;14.10;99.90;;;;;;5050426;28;20264;-77
2021/10/14 06:05:41;;;;;;;7.97;4.95;;;14.10;99.90;;;;;;5051119;28;20199;-76
2021/10/14 06:08:06;;;;;;;7.33;4.67;;;14.10;99.90;;;;;;5051346;28;20177;-80
2021/10/14 06:10:32;;;;;;;7.93;5.60;;;14.10;99.90;;;;;;5051994;28;20169;-79
2021/10/14 06:12:58;;;;;;;6.80;4.90;;;14.10;99.90;;;;;;5051110;28;20276;-79
2021/10/14 06:15:24;;;;;;;9.13;5.23;;;14.20;99.90;;;;;;5051248;28;20181;-78
2021/10/14 06:17:49;;;;;;;7.10;5.27;;;14.20;99.90;;;;;;5032671;28;20173;-78
2021/10/14 06:20:15;;;;;;;10.03;5.47;;;14.20;99.90;;;;;;5051115;28;20165;-77
2021/10/14 06:22:41;;;;;;;8.40;4.90;;;14.20;99.90;;;;;;5050391;28;20358;-79
2021/10/14 06:25:08;;;;;;;7.03;4.00;;;14.20;99.90;;;;;;5049773;28;20208;-79
2021/10/14 06:27:33;;;;;;;4.78;3.88;;;14.10;99.90;;;;;;5051222;28;20963;-79
2021/10/14 06:29:59;;;;;;;6.90;4.40;;;14.20;99.90;;;;;;5049423;28;20177;-78
2021/10/14 06:32:26;;;;;;;6.47;4.80;;;14.20;99.90;;;;;;5050775;28;20637;-78
2021/10/14 06:34:52;;;;;;;4.33;3.90;;;14.20;99.90;;;;;;5051454;28;20247;-79
2021/10/14 06:37:18;;;;;;;7.32;4.35;;;14.20;99.90;;;;;;5033031;28;21017;-79
2021/10/14 06:39:44;;;;;;;7.10;5.17;;;14.20;99.90;;;;;;5050717;28;20196;-79
2021/10/14 06:42:10;;;;;;;5.67;4.50;;;14.20;99.90;;;;;;5051674;28;20655;-79
2021/10/14 06:44:36;;;;;;;6.20;3.63;;;14.20;99.90;;;;;;5055830;28;20729;-78
2021/10/14 06:47:02;;;;;;;6.87;4.60;;;14.20;99.90;;;;;;5074740;28;20198;-75
2021/10/14 06:49:27;;;;;;;7.27;4.33;;;14.30;99.90;;;;;;5074618;28;20529;-75
2021/10/14 06:51:55;;;;;;;6.90;4.90;;;14.30;99.90;;;;;;5056313;28;20598;-75
2021/10/14 06:54:21;;;;;;;5.13;3.80;;;14.30;99.90;;;;;;5073833;28;20234;-76
2021/10/14 06:56:47;;;;;;;7.90;4.27;;;14.30;99.90;;;;;;5073878;28;20590;-76
2021/10/14 06:59:14;;;;;;;5.50;3.93;;;14.30;99.90;;;;;;5074201;28;20570;-76
2021/10/14 07:01:40;;;;;;;8.90;4.17;;;14.30;99.90;;;;;;5073195;28;21030;-76
2021/10/14 07:04:06;;;;;;;9.83;5.00;;;14.30;99.90;;;;;;5073877;28;20606;-76
2021/10/14 07:06:32;;;;;;;7.80;4.43;;;14.30;99.90;;;;;;5059967;28;20261;-75
2021/10/14 07:08:58;;;;;;;9.53;5.20;;;14.40;99.90;;;;;;5054023;28;20223;-75
2021/10/14 07:11:32;;;;;;;7.90;5.70;;;14.40;99.90;;;;;;5052885;28;20617;-76
2021/10/14 07:13:58;;;;;;;6.18;4.95;;;14.40;99.90;;;;;;5053979;28;20603;-76
2021/10/14 07:16:24;;;;;;;10.40;5.63;;;14.40;99.90;;;;;;5053624;28;20181;-76
2021/10/14 07:18:50;;;;;;;8.63;6.40;;;14.30;99.90;;;;;;5035865;28;20572;-76
2021/10/14 07:21:16;;;;;;;7.57;5.40;;;14.30;99.90;;;;;;5053493;28;20972;-76
2021/10/14 07:23:42;;;;;;;7.60;5.40;;;14.30;99.90;;;;;;5035705;28;20168;-76
2021/10/14 07:26:08;;;;;;;8.83;5.53;;;14.30;99.90;;;;;;5053579;28;20205;-76
2021/10/14 07:28:34;;;;;;;8.20;5.43;;;14.30;99.90;;;;;;5053639;28;21122;-76
2021/10/14 07:30:59;;;;;;;5.60;4.70;;;14.30;99.90;;;;;;5053414;28;20220;-76
2021/10/14 07:33:25;;;;;;;5.50;5.00;;;14.30;99.90;;;;;;5053185;28;20680;-76
2021/10/14 07:35:51;;;;;;;8.63;5.30;;;14.30;99.90;;;;;;5035935;28;20181;-76
2021/10/14 07:38:17;;;;;;;8.50;5.50;;;14.40;99.90;;;;;;5053560;28;20173;-75
2021/10/14 07:40:43;;;;;;;6.40;4.67;;;14.40;99.90;;;;;;5053470;28;20165;-76
2021/10/14 07:43:14;;;;;;;9.00;5.53;;;14.40;99.90;;;;;;5035441;28;20203;-75
2021/10/14 07:45:41;;;;;;;7.27;5.43;;;14.40;99.90;;;;;;5053313;28;20598;-76
2021/10/14 07:48:07;;;;;;;5.97;4.60;;;14.50;99.90;;;;;;5054383;28;20564;-76
2021/10/14 07:50:34;;;;;;;5.53;5.03;;;14.50;99.90;;;;;;5053149;28;20621;-75
2021/10/14 07:53:00;;;;;;;8.63;5.80;;;14.50;99.90;;;;;;5052534;28;20726;-76
2021/10/14 07:55:26;;;;;;;9.30;5.00;;;14.50;99.90;;;;;;5034495;28;20587;-75
2021/10/14 07:57:52;;;;;;;7.33;5.60;;;14.50;99.90;;;;;;5052599;28;20973;-75
2021/10/14 08:00:17;;;;;;;7.63;5.63;;;14.60;99.90;;;;;;5052573;28;20253;-75
2021/10/14 08:02:43;;;;;;;8.70;5.20;;;14.60;99.90;;;;;;5052046;28;20209;-76
2021/10/14 08:05:09;;;;;;;10.20;5.40;;;14.60;99.90;;;;;;5052595;28;20946;-76
2021/10/14 08:07:36;;;;;;;6.97;5.23;;;14.70;99.90;;;;;;5035178;28;20180;-76
2021/10/14 08:10:02;;;;;;;8.53;5.73;;;14.70;99.90;;;;;;5035118;28;20572;-76
2021/10/14 08:12:28;;;;;;;7.70;4.93;;;14.80;99.90;;;;;;5034469;28;20627;-76
2021/10/14 08:14:54;;;;;;;8.07;5.63;;;14.80;99.90;;;;;;5052907;28;20901;-75
2021/10/14 08:17:19;;;;;;;8.90;6.60;;;14.90;99.90;;;;;;5052487;28;20172;-75
2021/10/14 08:19:45;;;;;;;10.40;6.00;;;14.90;99.90;;;;;;5053003;28;20216;-74
2021/10/14 08:22:11;;;;;;;7.43;6.40;;;14.90;99.90;;;;;;5052267;28;20536;-75
2021/10/14 08:24:39;;;;;;;7.90;6.20;;;14.90;99.90;;;;;;5054227;28;20264;-74
2021/10/14 08:27:05;;;;;;;7.23;5.77;;;15.00;99.90;;;;;;5052340;28;20591;-75
2021/10/14 08:29:31;;;;;;;8.63;5.40;;;15.00;99.90;;;;;;5052721;28;20689;-75
2021/10/14 08:31:57;;;;;;;6.50;5.20;;;15.00;99.90;;;;;;5051912;28;20603;-75
2021/10/14 08:34:23;;;;;;;11.63;6.00;;;15.10;99.90;;;;;;5034559;28;20926;-75
2021/10/14 08:36:49;;;;;;;7.57;6.43;;;15.10;99.90;;;;;;5052423;28;20645;-75
2021/10/14 08:39:16;;;;;;;9.33;5.57;;;15.10;99.90;;;;;;5052143;28;20560;-74
2021/10/14 08:41:46;;;;;;;7.20;5.68;;;15.10;99.90;;;;;;5052070;28;20904;-75
2021/10/14 08:44:19;;;;;;;6.10;5.50;;;15.10;99.90;;;;;;5051962;28;20251;-75
2021/10/14 08:46:47;;;;;;;7.90;5.87;;;15.20;99.90;;;;;;5052313;28;20663;-75
2021/10/14 08:49:14;;;;;;;8.00;6.27;;;15.10;99.90;;;;;;5050755;28;20576;-75
2021/10/14 08:51:40;;;;;;;6.83;5.87;;;15.20;99.90;;;;;;5051607;28;20624;-75
2021/10/14 08:54:06;;;;;;;9.60;6.73;;;15.20;99.90;;;;;;5049560;28;20961;-74
2021/10/14 08:56:33;;;;;;;8.60;6.37;;;15.20;99.90;;;;;;5052039;28;20641;-74
2021/10/14 08:59:00;;;;;;;10.70;6.40;;;15.20;99.90;;;;;;5034037;28;20166;-74
2021/10/14 09:01:26;;;;;;;8.30;6.70;;;15.30;99.90;;;;;;5034575;28;20563;-75
2021/10/14 09:03:54;;;;;;;8.47;7.57;;;15.30;99.90;;;;;;5052026;28;20587;-74
2021/10/14 09:06:19;;;;;;;7.80;6.77;;;15.40;99.90;;;;;;5050867;28;20685;-74
2021/10/14 09:08:51;;;;;;;7.53;6.30;;;15.40;99.90;;;;;;5051881;28;20674;-74
2021/10/14 09:11:27;;;;;;;9.53;7.73;;;15.50;99.90;;;;;;5051305;28;20683;-75
2021/10/14 09:14:03;;;;;;;7.87;6.77;;;15.50;99.90;;;;;;5034002;28;20629;-75
2021/10/14 09:16:31;;;;;;;8.53;6.73;;;15.60;99.90;;;;;;5033605;28;20614;-75
2021/10/14 09:19:12;;;;;;;9.80;7.97;;;15.70;99.90;;;;;;5033779;28;20567;-77
2021/10/14 09:21:40;;;;;;;8.87;7.60;;;15.80;99.90;;;;;;5000383;28;20582;-76
2021/10/14 09:24:26;;;;;;;11.77;8.20;;;15.80;99.90;;;;;;5033768;28;20571;-74
2021/10/14 09:26:52;;;;;;;9.07;7.63;;;15.90;99.90;;;;;;5040451;28;20611;-75
2021/10/14 09:29:21;;;;;;;11.53;8.00;;;16.00;99.90;;;;;;5051515;28;20882;-75
2021/10/14 09:31:49;;;;;;;11.47;8.70;;;16.00;99.90;;;;;;5049781;28;20594;-75
2021/10/14 09:34:26;;;;;;;9.60;7.67;;;16.00;99.90;;;;;;5042102;28;20674;-75
2021/10/14 09:36:52;;;;;;;13.07;9.03;;;16.10;99.90;;;;;;5050791;28;20710;-75
2021/10/14 09:39:19;;;;;;;10.40;9.33;;;16.10;99.90;;;;;;5053627;28;20602;-75
2021/10/14 09:41:45;;;;;;;8.40;7.50;;;16.00;99.90;;;;;;5050138;28;20583;-74
2021/10/14 09:44:17;;;;;;;9.57;7.37;;;16.10;99.90;;;;;;5051084;28;20565;-75
2021/10/14 09:46:45;;;;;;;9.40;7.87;;;16.10;99.90;;;;;;5032313;28;20587;-75
2021/10/14 09:49:29;;;;;;;9.67;7.70;;;16.10;99.90;;;;;;5049949;28;20602;-75
2021/10/14 09:52:02;;;;;;;10.57;8.10;;;16.10;99.90;;;;;;5032470;28;20622;-74
2021/10/14 09:54:30;;;;;;;8.10;6.70;;;16.10;99.90;;;;;;5050615;28;20578;-75
2021/10/14 09:56:57;;;;;;;8.70;7.80;;;16.10;99.90;;;;;;5033176;28;20615;-75
2021/10/14 09:59:23;;;;;;;11.60;8.50;;;16.20;99.90;;;;;;5050758;28;20567;-75
2021/10/14 10:01:52;;;;;;;10.50;8.03;;;16.20;99.90;;;;;;5050641;28;20893;-75
2021/10/14 10:04:25;;;;;;;9.80;8.67;;;16.30;99.90;;;;;;5050862;28;20894;-74
2021/10/14 10:06:51;;;;;;;11.37;7.57;;;16.30;99.90;;;;;;5050979;28;20714;-75
2021/10/14 10:09:19;;;;;;;10.40;7.97;;;16.50;99.90;;;;;;5032947;28;20610;-75
2021/10/14 10:11:55;;;;;;;8.03;7.23;;;16.60;99.90;;;;;;5050641;28;20919;-74
2021/10/14 10:14:23;;;;;;;8.67;7.50;;;16.70;99.90;;;;;;5050836;28;20602;-74
2021/10/14 10:17:07;;;;;;;9.83;7.10;;;16.90;99.90;;;;;;5052719;28;20699;-75
2021/10/14 10:19:40;;;;;;;12.83;8.27;;;17.00;99.90;;;;;;5054749;28;20917;-75
2021/10/14 10:22:06;;;;;;;8.63;6.87;;;17.20;99.90;;;;;;5054392;28;21035;-75
2021/10/14 10:24:34;;;;;;;9.47;7.20;;;17.40;99.90;;;;;;5069349;28;20630;-75
2021/10/14 10:27:01;;;;;;;8.73;6.73;;;17.60;99.90;;;;;;5054565;28;20614;-75
2021/10/14 10:29:27;;;;;;;8.60;6.60;;;17.70;99.90;;;;;;5054492;28;20622;-75
2021/10/14 10:31:53;;;;;;;11.80;6.13;;;17.90;99.90;;;;;;5053927;28;20610;-76
2021/10/14 10:37:32;;;;;;;7.83;5.93;;;18.00;99.90;;;;;;5054406;28;20564;-76
2021/10/14 10:40:03;;;;;;;9.10;5.63;;;18.00;99.90;;;;;;5054538;28;20629;-76
2021/10/14 10:42:38;;;;;;;6.67;5.43;;;18.10;99.90;;;;;;5036178;28;20578;-76
2021/10/14 10:45:25;;;;;;;8.97;5.30;;;18.20;99.90;;;;;;5054331;28;20598;-76
2021/10/14 10:47:54;;;;;;;8.03;6.13;;;18.20;99.90;;;;;;5054287;28;20603;-76
2021/10/14 10:50:25;;;;;;;9.90;5.70;;;18.40;99.90;;;;;;5054130;28;21122;-76
2021/10/14 10:53:35;;;;;;;9.33;7.13;;;18.50;99.90;;;;;;5054484;28;20738;-76
2021/10/14 10:56:01;;;;;;;7.33;5.80;;;18.50;99.90;;;;;;5054118;28;20606;-76
2021/10/14 10:58:45;;;;;;;6.00;5.23;;;18.60;99.90;;;;;;5053929;28;20555;-76
2021/10/14 11:01:13;;;;;;;7.60;5.10;;;18.70;99.90;;;;;;5053833;28;20563;-76
2021/10/14 11:03:53;;;;;;;7.77;5.30;;;18.80;99.90;;;;;;5053934;28;20575;-76
2021/10/14 11:06:18;;;;;;;6.20;4.80;;;18.70;99.90;;;;;;5054892;28;20657;-76
2021/10/14 11:08:44;;;;;;;6.43;4.33;;;18.70;99.90;;;;;;5035878;28;21138;-76
2021/10/14 11:11:13;;;;;;;7.73;4.20;;;18.70;99.90;;;;;;5053818;28;20818;-76
2021/10/14 11:13:44;;;;;;;6.23;4.60;;;18.70;99.90;;;;;;5035716;28;21095;-76
2021/10/14 11:16:11;;;;;;;5.53;4.30;;;18.60;99.90;;;;;;5053827;28;20669;-76
2021/10/14 11:18:40;;;;;;;8.23;4.93;;;18.60;99.90;;;;;;5053553;28;20556;-76
2021/10/14 11:21:11;;;;;;;6.40;3.70;;;18.50;99.90;;;;;;5053289;28;20560;-76
2021/10/14 11:23:41;;;;;;;7.43;4.20;;;18.50;99.90;;;;;;5052513;28;20575;-75
2021/10/14 11:26:42;;;;;;;7.90;4.90;;;18.40;99.90;;;;;;5051639;28;20618;-75
2021/10/14 11:29:18;;;;;;;7.63;5.88;;;18.40;99.90;;;;;;5053131;28;20715;-76
2021/10/14 11:31:53;;;;;;;7.17;4.60;;;18.20;99.90;;;;;;5035917;28;20176;-75
2021/10/14 11:34:24;;;;;;;6.50;4.00;;;18.20;99.90;;;;;;5053674;28;21162;-76
2021/10/14 11:36:59;;;;;;;8.40;4.43;;;18.20;99.90;;;;;;5053458;28;20603;-75
2021/10/14 11:39:47;;;;;;;5.20;4.07;;;18.30;99.90;;;;;;5053558;28;20555;-75
2021/10/14 11:42:21;;;;;;;6.60;4.00;;;18.30;99.90;;;;;;5053000;28;20560;-75
2021/10/14 11:44:49;;;;;;;7.07;3.80;;;18.30;99.90;;;;;;5053125;28;21107;-76
2021/10/14 11:47:18;;;;;;;4.43;3.87;;;18.30;99.90;;;;;;5051985;28;20579;-76
2021/10/14 11:49:45;;;;;;;7.07;4.00;;;18.30;99.90;;;;;;5053311;28;20575;-76
2021/10/14 11:52:12;;;;;;;5.60;4.23;;;18.20;99.90;;;;;;5052851;28;20661;-75
2021/10/14 11:54:41;;;;;;;5.00;3.63;;;18.20;99.90;;;;;;5053499;28;20914;-76
2021/10/14 11:57:08;;;;;;;4.33;3.70;;;18.20;99.90;;;;;;5052904;28;20591;-75
2021/10/14 11:59:34;;;;;;;5.07;3.67;;;18.20;99.90;;;;;;5053663;28;20572;-76
2021/10/14 12:02:20;;;;;;;5.90;3.37;;;18.20;99.90;;;;;;5053197;28;20583;-75
2021/10/14 12:04:51;;;;;;;6.53;3.53;;;18.20;99.90;;;;;;5053422;28;20678;-75
2021/10/14 12:07:25;;;;;;;5.47;4.03;;;18.20;99.90;;;;;;5056803;28;20576;-75
2021/10/14 12:09:52;;;;;;;7.73;5.50;;;18.20;99.90;;;;;;5053714;28;20566;-75
2021/10/14 12:12:20;;;;;;;6.00;4.10;;;18.20;99.90;;;;;;5053350;28;20653;-75
2021/10/14 12:14:46;;;;;;;6.70;4.30;;;18.20;99.90;;;;;;5054624;28;20902;-75
2021/10/14 12:17:17;;;;;;;6.10;4.17;;;18.20;99.90;;;;;;5054998;28;20564;-76
2021/10/14 12:19:48;;;;;;;9.10;6.73;;;18.20;99.90;;;;;;5057483;28;20560;-76
2021/10/14 12:22:20;;;;;;;6.77;5.73;;;18.20;99.90;;;;;;5057331;28;20594;-76
2021/10/14 12:24:56;;;;;;;5.30;4.03;;;18.30;99.90;;;;;;5058593;28;20917;-76
2021/10/14 12:27:24;;;;;;;7.43;4.40;;;18.30;99.90;;;;;;5041973;28;20658;-75
2021/10/14 12:29:50;;;;;;;8.63;5.43;;;18.30;99.90;;;;;;5063902;28;20618;-76
2021/10/14 12:32:19;;;;;;;6.10;5.50;;;18.40;99.90;;;;;;5064942;28;21061;-75
2021/10/14 12:34:57;;;;;;;12.20;6.40;;;18.40;99.90;;;;;;5041300;28;20575;-76
2021/10/14 12:37:32;;;;;;;6.30;4.63;;;18.50;99.90;;;;;;5056395;28;20559;-76
2021/10/14 12:40:21;;;;;;;7.97;5.20;;;18.60;99.90;;;;;;5035776;28;20911;-76
2021/10/14 12:43:04;;;;;;;7.57;4.43;;;18.70;99.90;;;;;;5035398;28;20567;-75
2021/10/14 12:45:54;;;;;;;5.37;3.13;;;18.80;99.90;;;;;;5055267;28;20595;-76
2021/10/14 12:48:34;;;;;;;5.47;3.90;;;18.90;99.90;;;;;;5052473;28;20571;-75
2021/10/14 12:51:08;;;;;;;6.50;4.50;;;19.00;99.90;;;;;;5051767;28;20609;-75